createdAt,value
2022-08-05T00:00:54.918Z,100521.03
2022-08-05T00:03:22.748Z,100524.63
2022-08-05T00:06:04.737Z,100522.81
2022-08-05T00:08:36.108Z,100509.38
2022-08-05T00:11:23.911Z,100516.97
2022-08-05T00:13:58.430Z,100512.69
2022-08-05T00:16:36.108Z,100507.94
2022-08-05T00:19:14.184Z,100515.78
2022-08-05T00:21:42.658Z,100511.25
2022-08-05T00:24:16.008Z,100502.50
2022-08-05T00:26:50.803Z,100513.09
2022-08-05T00:29:22.702Z,100511.56
2022-08-05T00:32:12.742Z,100504.59
2022-08-05T00:34:54.081Z,100502.59
2022-08-05T00:37:50.384Z,100504.25
2022-08-05T00:40:17.948Z,100513.94
2022-08-05T00:42:57.850Z,100510.94
2022-08-05T00:45:38.242Z,100501.25
2022-08-05T00:48:10.972Z,100494.06
2022-08-05T00:50:41.286Z,100504.56
2022-08-05T00:53:10.082Z,100504.25
2022-08-05T00:55:57.917Z,100514.88
2022-08-05T00:58:27.563Z,100516.06
2022-08-05T01:00:55.877Z,100544.47
2022-08-05T01:03:24.256Z,100541.53
2022-08-05T01:05:58.924Z,100526.81
2022-08-05T01:08:41.929Z,100518.28
2022-08-05T01:11:14.175Z,100538.56
2022-08-05T01:13:59.729Z,100528.00
2022-08-05T01:16:33.268Z,100534.59
2022-08-05T01:19:07.859Z,100526.19
2022-08-05T01:21:51.213Z,100531.47
2022-08-05T01:24:32.426Z,100534.38
2022-08-05T01:27:17.778Z,100551.28
2022-08-05T01:29:51.789Z,100534.63
2022-08-05T01:32:23.950Z,100536.13
2022-08-05T01:34:59.789Z,100534.19
2022-08-05T01:37:44.593Z,100540.81
2022-08-05T01:40:13.426Z,100544.19
2022-08-05T01:42:47.436Z,100529.19
2022-08-05T01:45:17.763Z,100528.94
2022-08-05T01:47:48.512Z,100536.34
2022-08-05T01:50:28.728Z,100541.81
2022-08-05T01:53:02.013Z,100524.50
2022-08-05T01:55:32.481Z,100527.97
2022-08-05T01:58:10.380Z,100539.28
2022-08-05T02:00:55.203Z,100527.28
2022-08-05T02:03:31.856Z,100534.47
2022-08-05T02:06:33.328Z,100538.25
2022-08-05T02:08:58.204Z,100518.31
2022-08-05T02:11:33.313Z,100513.47
2022-08-05T02:14:05.060Z,100527.75
2022-08-05T02:16:40.397Z,100521.75
2022-08-05T02:19:13.914Z,100516.50
2022-08-05T02:21:46.897Z,100510.16
2022-08-05T02:24:23.114Z,100516.56
2022-08-05T02:26:54.851Z,100518.63
2022-08-05T02:29:59.053Z,100511.97
2022-08-05T02:32:23.793Z,100521.97
2022-08-05T02:34:54.580Z,100528.13
2022-08-05T02:37:23.784Z,100532.19
2022-08-05T02:39:53.435Z,100524.00
2022-08-05T02:42:25.824Z,100531.31
2022-08-05T02:44:56.450Z,100526.03
2022-08-05T02:47:58.337Z,100521.31
2022-08-05T02:50:18.139Z,100516.28
2022-08-05T02:52:47.024Z,100514.66
2022-08-05T02:55:17.560Z,100524.56
2022-08-05T02:58:09.654Z,100527.13
2022-08-05T03:00:40.525Z,100525.84
2022-08-05T03:03:16.601Z,100522.09
2022-08-05T03:06:53.999Z,100521.59
2022-08-05T03:08:33.711Z,100517.19
2022-08-05T03:11:54.309Z,100513.88
2022-08-05T03:14:02.682Z,100511.91
2022-08-05T03:16:31.544Z,100520.25
2022-08-05T03:19:12.520Z,100506.47
2022-08-05T03:21:49.309Z,100507.91
2022-08-05T03:24:18.530Z,100503.28
2022-08-05T03:26:57.685Z,100498.44
2022-08-05T03:29:45.256Z,100499.09
2022-08-05T03:32:14.427Z,100492.34
2022-08-05T03:34:50.785Z,100489.56
2022-08-05T03:37:20.613Z,100507.13
2022-08-05T03:39:59.395Z,100501.72
2022-08-05T03:42:32.106Z,100510.41
2022-08-05T03:45:01.503Z,100512.19
2022-08-05T03:47:35.424Z,100512.75
2022-08-05T03:50:06.807Z,100516.88
2022-08-05T03:55:00.278Z,100510.88
2022-08-05T03:56:09.574Z,100511.72
2022-08-05T03:58:28.986Z,100505.13
2022-08-05T04:00:58.276Z,100508.78
2022-08-05T04:03:35.904Z,100516.56
2022-08-05T04:06:08.726Z,100521.66
2022-08-05T04:08:37.130Z,100524.13
2022-08-05T04:11:08.884Z,100530.03
2022-08-05T04:13:50.406Z,100531.91
2022-08-05T04:16:24.299Z,100532.09
2022-08-05T04:19:00.335Z,100517.13
2022-08-05T04:22:08.824Z,100519.78
2022-08-05T04:24:19.231Z,100508.72
2022-08-05T04:26:50.768Z,100495.38
2022-08-05T04:29:19.058Z,100504.25
2022-08-05T04:31:48.462Z,100512.94
2022-08-05T04:34:32.486Z,100512.75
2022-08-05T04:37:03.448Z,100519.06
2022-08-05T04:39:31.420Z,100519.59
2022-08-05T04:42:00.099Z,100533.50
2022-08-05T04:44:30.721Z,100550.06
2022-08-05T04:46:59.243Z,100555.22
2022-08-05T04:49:39.225Z,100547.22
2022-08-05T04:52:17.010Z,100552.41
2022-08-05T04:54:46.508Z,100553.44
2022-08-05T04:57:14.484Z,100546.63
2022-08-05T04:59:42.346Z,100547.31
2022-08-05T05:02:37.630Z,100548.94
2022-08-05T05:05:26.344Z,100544.47
2022-08-05T05:07:56.495Z,100543.94
2022-08-05T05:10:30.097Z,100545.47
2022-08-05T05:12:58.104Z,100553.97
2022-08-05T05:15:57.832Z,100547.91
2022-08-05T05:18:28.480Z,100550.13
2022-08-05T05:21:03.762Z,100548.53
2022-08-05T05:24:01.977Z,100556.69
2022-08-05T05:26:28.786Z,100558.38
2022-08-05T05:29:00.989Z,100563.75
2022-08-05T05:31:35.877Z,100569.09
2022-08-05T05:34:01.989Z,100594.00
2022-08-05T05:36:30.267Z,100610.81
2022-08-05T05:38:59.620Z,100615.78
2022-08-05T05:41:40.897Z,100620.63
2022-08-05T05:44:35.497Z,100612.25
2022-08-05T05:46:58.389Z,100597.13
2022-08-05T05:49:33.110Z,100593.72
2022-08-05T05:52:01.109Z,100596.34
2022-08-05T05:54:50.078Z,100604.78
2022-08-05T05:57:19.514Z,100621.84
2022-08-05T05:59:49.008Z,100636.06
2022-08-05T06:02:17.340Z,100648.09
2022-08-05T06:05:01.371Z,100672.94
2022-08-05T06:07:41.211Z,100668.53
2022-08-05T06:10:11.948Z,100656.75
2022-08-05T06:12:42.265Z,100666.56
2022-08-05T06:15:16.541Z,100681.38
2022-08-05T06:17:54.250Z,100681.75
2022-08-05T06:20:23.041Z,100691.41
2022-08-05T06:22:50.987Z,100697.69
2022-08-05T06:25:59.695Z,100718.44
2022-08-05T06:28:11.106Z,100719.22
2022-08-05T06:30:46.888Z,100702.63
2022-08-05T06:33:19.013Z,100688.44
2022-08-05T06:36:08.187Z,100696.13
2022-08-05T06:38:35.793Z,100684.63
2022-08-05T06:41:09.303Z,100677.81
2022-08-05T06:43:51.640Z,100677.28
2022-08-05T06:46:30.008Z,100677.69
2022-08-05T06:48:59.213Z,100690.56
2022-08-05T06:51:30.719Z,100682.19
2022-08-05T06:53:59.584Z,100685.78
2022-08-05T06:56:29.753Z,100683.44
2022-08-05T06:58:57.874Z,100683.31
2022-08-05T07:01:27.653Z,100684.63
2022-08-05T07:04:01.320Z,100689.97
2022-08-05T07:06:30.504Z,100682.69
2022-08-05T07:09:00.294Z,100691.03
2022-08-05T07:11:37.173Z,100689.72
2022-08-05T07:14:30.262Z,100696.97
2022-08-05T07:17:59.043Z,100705.13
2022-08-05T07:22:42.061Z,100728.31
2022-08-05T07:25:55.463Z,100739.00
2022-08-05T07:28:05.882Z,100740.41
2022-08-05T07:30:39.194Z,100727.66
2022-08-05T07:33:10.394Z,100720.88
2022-08-05T07:36:04.265Z,100733.94
2022-08-05T07:38:33.335Z,100729.13
2022-08-05T07:42:08.031Z,100737.66
2022-08-05T07:43:56.884Z,100727.38
2022-08-05T07:46:26.825Z,100720.94
2022-08-05T07:49:01.908Z,100727.16
2022-08-05T07:51:48.555Z,100733.88
2022-08-05T07:54:23.158Z,100722.44
2022-08-05T07:57:13.641Z,100707.66
2022-08-05T07:59:43.764Z,100698.84
2022-08-05T08:02:16.920Z,100720.00
2022-08-05T08:04:47.224Z,100721.97
2022-08-05T08:07:15.621Z,100727.50
2022-08-05T08:09:43.989Z,100729.91
2022-08-05T08:12:35.103Z,100720.38
2022-08-05T08:15:03.436Z,100719.16
2022-08-05T08:17:32.643Z,100718.09
2022-08-05T08:20:21.106Z,100711.28
2022-08-05T08:22:52.760Z,100712.34
2022-08-05T08:25:27.082Z,100688.72
2022-08-05T08:28:18.062Z,100671.28
2022-08-05T08:30:49.865Z,100684.91
2022-08-05T08:33:19.128Z,100700.34
2022-08-05T08:35:53.802Z,100726.78
2022-08-05T08:38:37.860Z,100739.00
2022-08-05T08:41:08.355Z,100752.50
2022-08-05T08:45:23.383Z,100763.34
2022-08-05T08:46:28.632Z,100747.47
2022-08-05T08:49:04.175Z,100735.16
2022-08-05T08:52:02.850Z,100740.53
2022-08-05T08:54:27.396Z,100757.97
2022-08-05T08:56:56.640Z,100766.53
2022-08-05T08:59:27.414Z,100767.09
2022-08-05T09:02:08.870Z,100754.88
2022-08-05T09:04:58.543Z,100745.00
2022-08-05T09:07:29.209Z,100756.38
2022-08-05T09:10:08.254Z,100761.00
2022-08-05T09:12:36.599Z,100766.16
2022-08-05T09:15:06.539Z,100787.31
2022-08-05T09:17:43.057Z,100789.84
2022-08-05T09:20:36.475Z,100800.47
2022-08-05T09:23:09.608Z,100797.19
2022-08-05T09:26:01.098Z,100789.88
2022-08-05T09:28:32.629Z,100794.81
2022-08-05T09:31:23.417Z,100803.78
2022-08-05T09:33:59.163Z,100812.91
2022-08-05T09:36:53.901Z,100821.19
2022-08-05T09:39:41.570Z,100819.84
2022-08-05T09:42:17.485Z,100813.53
2022-08-05T09:44:56.805Z,100806.47
2022-08-05T09:47:28.626Z,100804.69
2022-08-05T09:50:08.322Z,100800.66
2022-08-05T09:52:44.805Z,100788.25
2022-08-05T09:55:56.562Z,100766.59
2022-08-05T09:58:11.833Z,100764.75
2022-08-05T10:00:39.743Z,100753.75
2022-08-05T10:03:11.719Z,100757.44
2022-08-05T10:05:42.122Z,100760.53
2022-08-05T10:08:35.740Z,100756.41
2022-08-05T10:10:57.984Z,100743.97
2022-08-05T10:13:47.413Z,100712.84
2022-08-05T10:16:37.765Z,100710.94
2022-08-05T10:19:10.268Z,100735.03
2022-08-05T10:21:41.317Z,100750.13
2022-08-05T10:24:12.947Z,100780.59
2022-08-05T10:26:51.441Z,100762.19
2022-08-05T10:29:23.588Z,100766.38
2022-08-05T10:33:02.202Z,100812.53
2022-08-05T10:35:00.974Z,100832.28
2022-08-05T10:37:40.167Z,100828.56
2022-08-05T10:40:21.574Z,100829.59
2022-08-05T10:43:15.376Z,100815.22
2022-08-05T10:45:43.278Z,100796.56
2022-08-05T10:48:35.068Z,100791.94
2022-08-05T10:51:22.191Z,100796.47
2022-08-05T10:53:58.336Z,100791.34
2022-08-05T10:56:30.929Z,100801.09
2022-08-05T11:00:01.184Z,100798.78
2022-08-05T11:02:08.122Z,100794.16
2022-08-05T11:04:46.065Z,100767.53
2022-08-05T11:07:16.419Z,100763.78
2022-08-05T11:09:47.297Z,100762.13
2022-08-05T11:12:45.538Z,100754.03
2022-08-05T11:15:21.546Z,100759.81
2022-08-05T11:17:59.716Z,100769.53
2022-08-05T11:20:41.870Z,100794.81
2022-08-05T11:24:05.718Z,100803.38
2022-08-05T11:26:28.584Z,100804.91
2022-08-05T11:29:11.917Z,100817.84
2022-08-05T11:31:56.561Z,100806.41
2022-08-05T11:34:38.394Z,100802.69
2022-08-05T11:38:28.839Z,100797.19
2022-08-05T11:40:00.733Z,100813.00
2022-08-05T11:42:40.530Z,100817.69
2022-08-05T11:45:14.314Z,100812.47
2022-08-05T11:47:55.215Z,100824.66
2022-08-05T11:50:23.422Z,100820.75
2022-08-05T11:52:57.651Z,100814.63
2022-08-05T11:55:32.320Z,100804.06
2022-08-05T11:58:10.969Z,100804.81
2022-08-05T12:00:41.131Z,100804.78
2022-08-05T12:03:23.765Z,100803.53
2022-08-05T12:06:00.889Z,100806.94
2022-08-05T12:08:32.759Z,100808.06
2022-08-05T12:11:05.734Z,100812.78
2022-08-05T12:13:48.499Z,100800.88
2022-08-05T12:16:20.310Z,100808.00
2022-08-05T12:18:56.101Z,100813.13
2022-08-05T12:21:29.771Z,100817.03
2022-08-05T12:24:05.174Z,100818.97
2022-08-05T12:26:34.465Z,100818.78
2022-08-05T12:29:05.035Z,100816.81
2022-08-05T12:31:41.522Z,100805.72
2022-08-05T12:34:20.478Z,100807.72
2022-08-05T12:36:49.938Z,100804.72
2022-08-05T12:39:18.089Z,100791.56
2022-08-05T12:41:46.517Z,100795.91
2022-08-05T12:44:32.641Z,100793.66
2022-08-05T12:47:02.876Z,100794.50
2022-08-05T12:50:03.970Z,100800.16
2022-08-05T12:52:37.727Z,100806.03
2022-08-05T12:55:18.037Z,100798.31
2022-08-05T12:58:39.161Z,100799.97
2022-08-05T13:01:59.712Z,100799.84
2022-08-05T13:03:32.539Z,100794.25
2022-08-05T13:06:00.822Z,100803.84
2022-08-05T13:08:32.281Z,100791.06
2022-08-05T13:11:04.511Z,100787.19
2022-08-05T13:14:06.008Z,100796.31
2022-08-05T13:16:25.151Z,100795.88
2022-08-05T13:18:58.351Z,100801.44
2022-08-05T13:21:28.506Z,100795.41
2022-08-05T13:24:08.730Z,100794.19
2022-08-05T13:26:37.061Z,100793.16
2022-08-05T13:29:05.564Z,100787.19
2022-08-05T13:32:03.826Z,100798.25
2022-08-05T13:34:25.845Z,100799.25
2022-08-05T13:36:54.435Z,100795.72
2022-08-05T13:40:13.819Z,100808.31
2022-08-05T13:42:14.576Z,100800.97
2022-08-05T13:44:45.665Z,100791.91
2022-08-05T13:47:36.168Z,100788.16
2022-08-05T13:50:11.284Z,100796.81
2022-08-05T13:52:43.118Z,100802.44
2022-08-05T13:55:11.994Z,100799.84
2022-08-05T13:57:59.815Z,100808.22
2022-08-05T14:00:28.558Z,100808.44
2022-08-05T14:03:01.006Z,100805.75
2022-08-05T14:05:48.269Z,100800.72
2022-08-05T14:08:21.017Z,100812.91
2022-08-05T14:11:03.329Z,100815.13
2022-08-05T14:13:43.927Z,100812.59
2022-08-05T14:16:17.013Z,100806.00
2022-08-05T14:18:48.451Z,100803.13
2022-08-05T14:22:08.511Z,100814.38
2022-08-05T14:24:05.853Z,100812.56
2022-08-05T14:26:38.778Z,100807.50
2022-08-05T14:29:15.717Z,100811.81
2022-08-05T14:32:02.858Z,100808.59
2022-08-05T14:34:35.681Z,100820.03
2022-08-05T14:37:04.176Z,100832.34
2022-08-05T14:39:50.135Z,100829.47
2022-08-05T14:42:21.595Z,100827.00
2022-08-05T14:44:50.115Z,100824.31
2022-08-05T14:47:58.380Z,100819.84
2022-08-05T14:50:18.468Z,100840.19
2022-08-05T14:52:53.505Z,100833.13
2022-08-05T14:55:25.805Z,100832.72
2022-08-05T14:57:57.001Z,100834.16
2022-08-05T15:00:27.995Z,100829.47
2022-08-05T15:02:58.115Z,100826.94
2022-08-05T15:05:29.755Z,100821.53
2022-08-05T15:08:11.518Z,100810.28
2022-08-05T15:10:46.194Z,100815.41
2022-08-05T15:13:14.793Z,100820.97
2022-08-05T15:15:55.165Z,100823.53
2022-08-05T15:18:25.003Z,100822.91
2022-08-05T15:20:54.244Z,100828.31
2022-08-05T15:23:22.312Z,100833.72
2022-08-05T15:25:52.291Z,100826.44
2022-08-05T15:28:26.977Z,100820.66
2022-08-05T15:30:55.994Z,100838.31
2022-08-05T15:34:04.175Z,100841.09
2022-08-05T15:36:17.707Z,100845.28
2022-08-05T15:40:41.028Z,100845.09
2022-08-05T15:41:58.251Z,100845.19
2022-08-05T15:44:28.027Z,100846.84
2022-08-05T15:46:59.260Z,100861.31
2022-08-05T15:49:53.571Z,100859.25
2022-08-05T15:52:51.812Z,100865.59
2022-08-05T15:55:05.182Z,100874.97
2022-08-05T15:57:35.916Z,100872.84
2022-08-05T16:00:05.470Z,100865.16
2022-08-05T16:02:33.525Z,100871.91
2022-08-05T16:05:01.674Z,100858.59
2022-08-05T16:07:30.945Z,100881.16
2022-08-05T16:09:58.814Z,100885.78
2022-08-05T16:12:26.907Z,100888.00
2022-08-05T16:14:54.941Z,100895.50
2022-08-05T16:17:23.075Z,100892.94
2022-08-05T16:20:03.423Z,100900.06
2022-08-05T16:22:35.159Z,100893.59
2022-08-05T16:25:05.433Z,100894.72
2022-08-05T16:27:59.677Z,100904.59
2022-08-05T16:30:28.930Z,100925.91
2022-08-05T16:32:57.302Z,100935.09
2022-08-05T16:35:28.478Z,100931.03
2022-08-05T16:38:18.644Z,100934.59
2022-08-05T16:40:54.980Z,100944.75
2022-08-05T16:43:30.226Z,100968.34
2022-08-05T16:46:06.411Z,100978.41
2022-08-05T16:48:38.911Z,100959.34
2022-08-05T16:51:10.168Z,100952.19
2022-08-05T16:54:05.179Z,100959.81
2022-08-05T16:56:30.075Z,100947.44
2022-08-05T16:58:58.322Z,100977.16
2022-08-05T17:01:26.874Z,100987.97
2022-08-05T17:03:54.832Z,100964.25
2022-08-05T17:06:24.608Z,100974.38
2022-08-05T17:08:54.587Z,100985.56
2022-08-05T17:11:25.503Z,100996.47
2022-08-05T17:14:00.496Z,100996.88
2022-08-05T17:16:36.479Z,101017.44
2022-08-05T17:19:07.620Z,101026.50
2022-08-05T17:21:37.805Z,101032.16
2022-08-05T17:24:29.195Z,101037.09
2022-08-05T17:26:58.867Z,101035.38
2022-08-05T17:29:33.749Z,101054.38
2022-08-05T17:32:11.387Z,101022.25
2022-08-05T17:34:44.527Z,101056.66
2022-08-05T17:37:39.363Z,101059.41
2022-08-05T17:40:03.859Z,101054.75
2022-08-05T17:42:33.059Z,101060.75
2022-08-05T17:45:17.717Z,101069.31
2022-08-05T17:47:52.893Z,101073.41
2022-08-05T17:50:28.046Z,101098.78
2022-08-05T17:52:59.737Z,101102.25
2022-08-05T17:55:37.976Z,101083.13
2022-08-05T17:58:11.139Z,101100.25
2022-08-05T18:00:45.050Z,101107.06
2022-08-05T18:03:33.233Z,101125.97
2022-08-05T18:06:12.034Z,101115.22
2022-08-05T18:08:45.746Z,101109.59
2022-08-05T18:11:24.278Z,101107.88
2022-08-05T18:14:00.833Z,101123.31
2022-08-05T18:16:31.719Z,101121.03
2022-08-05T18:18:59.598Z,101132.00
2022-08-05T18:21:28.036Z,101135.47
2022-08-05T18:23:56.803Z,101143.19
2022-08-05T18:26:29.500Z,101147.84
2022-08-05T18:29:00.472Z,101146.16
2022-08-05T18:31:33.755Z,101149.31
2022-08-05T18:34:05.997Z,101154.38
2022-08-05T18:36:36.332Z,101170.66
2022-08-05T18:39:09.624Z,101182.25
2022-08-05T18:41:56.031Z,101164.56
2022-08-05T18:44:35.110Z,101175.06
2022-08-05T18:47:15.427Z,101175.41
2022-08-05T18:50:00.877Z,101182.97
2022-08-05T18:52:41.648Z,101191.25
2022-08-05T18:55:21.499Z,101192.13
2022-08-05T18:57:53.506Z,101201.91
2022-08-05T19:00:28.523Z,101200.44
2022-08-05T19:02:57.669Z,101204.84
2022-08-05T19:06:13.612Z,101208.50
2022-08-05T19:08:21.624Z,101203.63
2022-08-05T19:10:49.785Z,101209.38
2022-08-05T19:13:19.868Z,101205.19
2022-08-05T19:15:58.714Z,101219.09
2022-08-05T19:18:32.435Z,101222.63
2022-08-05T19:21:00.508Z,101236.78
2022-08-05T19:24:07.795Z,101241.41
2022-08-05T19:26:19.524Z,101250.47
2022-08-05T19:28:48.775Z,101242.44
2022-08-05T19:31:18.024Z,101250.53
2022-08-05T19:33:48.566Z,101247.34
2022-08-05T19:36:25.801Z,101248.84
2022-08-05T19:38:54.728Z,101244.81
2022-08-05T19:41:58.163Z,101264.63
2022-08-05T19:44:13.038Z,101272.59
2022-08-05T19:46:43.735Z,101277.72
2022-08-05T19:49:12.435Z,101282.72
2022-08-05T19:52:09.101Z,101282.50
2022-08-05T19:54:34.314Z,101289.03
2022-08-05T19:57:06.488Z,101286.84
2022-08-05T19:59:55.451Z,101290.59
2022-08-05T20:02:28.200Z,101283.75
2022-08-05T20:04:58.923Z,101284.00
2022-08-05T20:07:47.469Z,101288.00
2022-08-05T20:10:15.694Z,101287.81
2022-08-05T20:12:45.921Z,101289.06
2022-08-05T20:15:48.620Z,101300.84
2022-08-05T20:18:10.147Z,101299.88
2022-08-05T20:20:55.223Z,101306.44
2022-08-05T20:23:23.726Z,101297.59
2022-08-05T20:26:09.016Z,101306.47
2022-08-05T20:28:45.193Z,101308.06
2022-08-05T20:31:16.475Z,101309.31
2022-08-05T20:33:44.968Z,101326.34
2022-08-05T20:36:14.275Z,101338.75
2022-08-05T20:38:54.390Z,101346.63
2022-08-05T20:41:44.526Z,101353.47
2022-08-05T20:44:18.520Z,101343.22
2022-08-05T20:46:58.696Z,101351.41
2022-08-05T20:49:26.605Z,101362.84
2022-08-05T20:51:54.760Z,101372.56
2022-08-05T20:54:22.734Z,101373.31
2022-08-05T20:56:52.637Z,101385.91
2022-08-05T20:59:26.952Z,101380.41
2022-08-05T21:02:10.178Z,101393.03
2022-08-05T21:04:39.060Z,101404.41
2022-08-05T21:07:08.914Z,101407.09
2022-08-05T21:09:37.107Z,101407.53
2022-08-05T21:12:19.423Z,101404.66
2022-08-05T21:14:47.596Z,101405.28
2022-08-05T21:17:17.024Z,101409.81
2022-08-05T21:19:47.912Z,101412.53
2022-08-05T21:22:21.775Z,101423.75
2022-08-05T21:24:51.876Z,101420.31
2022-08-05T21:27:20.691Z,101423.63
2022-08-05T21:29:55.289Z,101417.75
2022-08-05T21:32:27.057Z,101417.34
2022-08-05T21:35:06.748Z,101421.69
2022-08-05T21:37:41.187Z,101422.47
2022-08-05T21:40:13.119Z,101420.94
2022-08-05T21:42:44.467Z,101424.78
2022-08-05T21:45:25.152Z,101430.66
2022-08-05T21:48:06.644Z,101427.41
2022-08-05T21:50:36.624Z,101424.75
2022-08-05T21:53:17.405Z,101421.66
2022-08-05T21:56:01.077Z,101436.94
2022-08-05T21:58:33.838Z,101443.06
2022-08-05T22:01:04.114Z,101440.13
2022-08-05T22:03:51.735Z,101453.09
2022-08-05T22:06:35.078Z,101454.13
2022-08-05T22:09:13.576Z,101442.91
2022-08-05T22:11:46.798Z,101436.28
2022-08-05T22:14:33.349Z,101430.75
2022-08-05T22:17:06.820Z,101449.28
2022-08-05T22:20:00.724Z,101456.03
2022-08-05T22:22:27.615Z,101477.63
2022-08-05T22:25:21.190Z,101479.97
2022-08-05T22:28:04.943Z,101472.53
2022-08-05T22:30:56.154Z,101475.47
2022-08-05T22:33:56.594Z,101481.25
2022-08-05T22:36:15.731Z,101476.25
2022-08-05T22:38:48.156Z,101481.91
2022-08-05T22:42:04.743Z,101486.94
2022-08-05T22:44:05.709Z,101483.06
2022-08-05T22:46:33.603Z,101493.03
2022-08-05T22:49:07.850Z,101485.47
2022-08-05T22:52:05.806Z,101486.88
2022-08-05T22:54:29.693Z,101490.75
2022-08-05T22:56:57.530Z,101487.78
2022-08-05T22:59:46.483Z,101476.16
2022-08-05T23:02:13.784Z,101490.94
2022-08-05T23:04:51.391Z,101489.63
2022-08-05T23:07:22.503Z,101486.00
2022-08-05T23:09:53.392Z,101494.84
2022-08-05T23:12:32.825Z,101489.28
2022-08-05T23:15:03.558Z,101484.34
2022-08-05T23:17:34.555Z,101490.53
2022-08-05T23:20:16.581Z,101499.44
2022-08-05T23:22:48.387Z,101495.22
2022-08-05T23:25:51.777Z,101504.03
2022-08-05T23:28:06.732Z,101501.88
2022-08-05T23:30:40.526Z,101498.81
2022-08-05T23:33:16.046Z,101507.75
2022-08-05T23:38:20.013Z,101530.69
2022-08-05T23:40:49.734Z,101528.69
2022-08-05T23:43:25.604Z,101527.56
2022-08-05T23:46:20.607Z,101525.75
2022-08-05T23:49:00.679Z,101538.66
2022-08-05T23:51:54.125Z,101532.13
2022-08-05T23:54:26.459Z,101533.53
2022-08-05T23:57:04.122Z,101531.47
